createdAt,value
2018-09-15T00:01:17.425Z,14.20
2018-09-15T00:03:48.209Z,14.30
2018-09-15T00:06:19.005Z,14.30
2018-09-15T00:08:55.342Z,14.30
2018-09-15T00:11:27.658Z,14.30
2018-09-15T00:14:03.974Z,14.40
2018-09-15T00:16:32.842Z,14.50
2018-09-15T00:19:01.735Z,14.60
2018-09-15T00:21:31.502Z,14.60
2018-09-15T00:24:00.322Z,14.70
2018-09-15T00:26:30.127Z,14.80
2018-09-15T00:29:09.002Z,14.80
2018-09-15T00:31:39.850Z,14.90
2018-09-15T00:34:14.099Z,15.00
2018-09-15T00:36:43.910Z,15.00
2018-09-15T00:39:12.958Z,14.90
2018-09-15T00:41:45.627Z,14.80
2018-09-15T00:44:37.637Z,14.70
2018-09-15T00:47:18.752Z,14.70
2018-09-15T00:49:54.453Z,14.70
2018-09-15T00:52:27.001Z,14.80
2018-09-15T00:55:12.749Z,14.80
2018-09-15T00:57:43.605Z,14.80
2018-09-15T01:00:13.429Z,14.80
2018-09-15T01:02:52.217Z,14.80
2018-09-15T01:05:22.100Z,14.90
2018-09-15T01:07:55.273Z,14.90
2018-09-15T01:10:24.051Z,14.90
2018-09-15T01:13:05.005Z,15.00
2018-09-15T01:15:56.285Z,15.00
2018-09-15T01:18:43.725Z,15.10
2018-09-15T01:21:28.050Z,15.10
2018-09-15T01:24:02.541Z,15.00
2018-09-15T01:26:36.337Z,15.00
2018-09-15T01:29:09.238Z,15.00
2018-09-15T01:31:37.969Z,15.00
2018-09-15T01:34:13.381Z,14.90
2018-09-15T01:36:42.169Z,14.90
2018-09-15T01:39:10.997Z,14.90
2018-09-15T01:41:49.997Z,14.90
2018-09-15T01:44:18.841Z,14.90
2018-09-15T01:46:55.557Z,14.90
2018-09-15T01:49:25.341Z,14.90
2018-09-15T01:51:58.125Z,14.90
2018-09-15T01:54:26.910Z,14.80
2018-09-15T01:57:05.750Z,14.80
2018-09-15T01:59:47.675Z,14.80
2018-09-15T02:02:19.982Z,14.80
2018-09-15T02:05:14.308Z,14.70
2018-09-15T02:07:56.637Z,14.60
2018-09-15T02:10:35.969Z,14.50
2018-09-15T02:15:59.449Z,14.30
2018-09-15T02:18:44.639Z,14.30
2018-09-15T02:21:13.485Z,14.30
2018-09-15T02:23:47.473Z,14.30
2018-09-15T02:26:28.078Z,14.30
2018-09-15T02:28:56.948Z,14.40
2018-09-15T02:31:38.786Z,14.40
2018-09-15T02:34:10.690Z,14.40
2018-09-15T02:36:58.553Z,14.30
2018-09-15T02:39:32.009Z,14.30
2018-09-15T02:42:11.418Z,14.20
2018-09-15T02:44:51.046Z,14.30
2018-09-15T02:47:30.285Z,14.20
2018-09-15T02:50:12.773Z,14.20
2018-09-15T02:52:41.642Z,14.20
2018-09-15T02:58:09.590Z,14.10
2018-09-15T03:01:00.763Z,14.10
2018-09-15T03:06:28.325Z,14.10
2018-09-15T03:09:02.754Z,14.00
2018-09-15T03:11:45.078Z,13.90
2018-09-15T03:14:14.862Z,13.90
2018-09-15T03:16:43.601Z,13.90
2018-09-15T03:22:11.719Z,13.60
2018-09-15T03:30:41.360Z,13.30
2018-09-15T03:33:15.074Z,13.30
2018-09-15T03:35:50.546Z,13.20
2018-09-15T03:38:31.498Z,13.20
2018-09-15T03:41:11.350Z,13.20
2018-09-15T03:43:40.122Z,13.10
2018-09-15T03:46:13.818Z,13.10
2018-09-15T03:48:47.618Z,13.10
2018-09-15T03:51:34.621Z,13.20
2018-09-15T03:54:03.417Z,13.20
2018-09-15T03:56:50.826Z,13.10
2018-09-15T03:59:32.386Z,12.90
2018-09-15T04:02:02.162Z,12.80
2018-09-15T04:04:31.958Z,12.70
2018-09-15T04:07:00.705Z,12.60
2018-09-15T04:09:56.201Z,12.70
2018-09-15T04:12:29.751Z,12.70
2018-09-15T04:14:58.534Z,12.80
2018-09-15T04:17:28.357Z,12.90
2018-09-15T04:19:58.238Z,12.90
2018-09-15T04:22:45.430Z,12.90
2018-09-15T04:25:28.907Z,12.90
2018-09-15T04:28:03.477Z,12.80
2018-09-15T04:30:37.986Z,12.90
2018-09-15T04:33:14.450Z,13.00
2018-09-15T04:38:47.361Z,13.20
2018-09-15T04:41:41.143Z,13.10
2018-09-15T04:44:13.973Z,13.10
2018-09-15T04:46:49.277Z,13.10
2018-09-15T04:52:12.105Z,13.20
2018-09-15T04:54:41.905Z,13.20
2018-09-15T04:57:14.604Z,13.20
2018-09-15T04:59:47.681Z,13.10
2018-09-15T05:05:12.090Z,13.10
2018-09-15T05:07:46.513Z,13.20
2018-09-15T05:10:18.645Z,13.30
2018-09-15T05:12:58.106Z,13.50
2018-09-15T05:15:30.401Z,13.60
2018-09-15T05:18:13.162Z,13.60
2018-09-15T05:24:00.066Z,13.60
2018-09-15T05:26:28.909Z,13.60
2018-09-15T05:29:14.575Z,13.60
2018-09-15T05:31:45.349Z,13.60
2018-09-15T05:34:14.182Z,13.70
2018-09-15T05:36:46.172Z,13.80
2018-09-15T05:39:14.989Z,13.80
2018-09-15T05:41:47.334Z,13.90
2018-09-15T05:44:24.474Z,14.00
2018-09-15T05:47:11.893Z,14.10
2018-09-15T05:49:41.625Z,14.10
2018-09-15T05:52:11.378Z,14.10
2018-09-15T05:54:40.150Z,14.20
2018-09-15T05:57:09.981Z,14.20
2018-09-15T05:59:56.922Z,14.30
2018-09-15T06:02:48.957Z,14.30
2018-09-15T06:05:17.799Z,14.50
2018-09-15T06:08:06.397Z,14.50
2018-09-15T06:13:43.824Z,14.70
2018-09-15T06:16:16.235Z,14.90
2018-09-15T06:18:59.009Z,15.10
2018-09-15T06:21:48.770Z,15.20
2018-09-15T06:24:17.622Z,15.40
2018-09-15T06:27:02.544Z,15.50
2018-09-15T06:32:31.002Z,15.50
2018-09-15T06:35:13.042Z,15.50
2018-09-15T06:37:42.801Z,15.60
2018-09-15T06:40:14.980Z,15.80
2018-09-15T06:42:55.244Z,15.90
2018-09-15T06:45:27.618Z,16.00
2018-09-15T06:47:56.383Z,16.20
2018-09-15T06:50:49.781Z,16.30
2018-09-15T06:53:18.621Z,16.50
2018-09-15T06:55:52.141Z,16.80
2018-09-15T06:58:20.913Z,17.00
2018-09-15T07:01:06.769Z,17.30
2018-09-15T07:03:57.968Z,17.30
2018-09-15T07:06:34.109Z,17.50
2018-09-15T07:09:10.721Z,17.30
2018-09-15T07:11:50.625Z,17.60
2018-09-15T07:17:26.830Z,18.40
2018-09-15T07:20:11.648Z,18.60
2018-09-15T07:22:40.421Z,18.80
2018-09-15T07:25:14.629Z,19.20
2018-09-15T07:30:55.669Z,19.10
2018-09-15T07:33:32.465Z,19.20
2018-09-15T07:36:01.293Z,19.40
2018-09-15T07:38:34.798Z,19.70
2018-09-15T07:41:09.120Z,19.80
2018-09-15T07:43:38.941Z,20.00
2018-09-15T07:46:17.665Z,20.30
2018-09-15T07:48:52.233Z,20.50
2018-09-15T07:51:21.993Z,20.40
2018-09-15T07:53:50.789Z,20.60
2018-09-15T07:56:20.574Z,21.20
2018-09-15T07:58:49.453Z,21.40
2018-09-15T08:01:38.977Z,21.90
2018-09-15T08:04:07.718Z,22.40
2018-09-15T08:06:36.541Z,22.50
2018-09-15T08:09:10.213Z,22.20
2018-09-15T08:11:39.012Z,22.60
2018-09-15T08:14:07.786Z,22.80
2018-09-15T08:16:36.574Z,23.60
2018-09-15T08:19:15.234Z,23.80
2018-09-15T08:22:01.666Z,23.50
2018-09-15T08:24:32.617Z,23.00
2018-09-15T08:27:21.438Z,23.60
2018-09-15T08:29:50.184Z,23.40
2018-09-15T08:32:21.959Z,23.70
2018-09-15T08:34:57.241Z,23.90
2018-09-15T08:37:31.501Z,24.10
2018-09-15T08:40:03.569Z,24.30
2018-09-15T08:42:32.367Z,24.80
2018-09-15T08:45:02.229Z,24.40
2018-09-15T08:47:41.537Z,24.20
2018-09-15T08:50:16.022Z,24.00
2018-09-15T08:52:48.813Z,23.80
2018-09-15T08:55:17.586Z,23.80
2018-09-15T08:57:54.231Z,25.10
2018-09-15T09:00:28.565Z,26.40
2018-09-15T09:03:06.961Z,26.90
2018-09-15T09:05:43.905Z,27.60
2018-09-15T09:08:12.674Z,27.40
2018-09-15T09:10:45.144Z,26.00
2018-09-15T09:13:20.409Z,26.40
2018-09-15T09:15:49.686Z,26.60
2018-09-15T09:18:19.437Z,26.80
2018-09-15T09:20:51.973Z,27.90
2018-09-15T09:23:36.877Z,27.80
2018-09-15T09:26:05.618Z,28.10
2018-09-15T09:28:42.705Z,28.70
2018-09-15T09:31:15.173Z,28.10
2018-09-15T09:33:43.945Z,28.00
2018-09-15T09:36:16.104Z,28.10
2018-09-15T09:38:51.281Z,28.10
2018-09-15T09:41:27.611Z,28.30
2018-09-15T09:44:16.749Z,28.10
2018-09-15T09:46:52.225Z,27.10
2018-09-15T09:49:28.672Z,28.90
2018-09-15T09:51:57.464Z,30.70
2018-09-15T09:54:44.436Z,31.60
2018-09-15T09:57:13.180Z,29.60
2018-09-15T09:59:52.237Z,29.70
2018-09-15T10:02:26.517Z,28.40
2018-09-15T10:04:58.375Z,28.90
2018-09-15T10:07:29.109Z,28.40
2018-09-15T10:10:04.240Z,26.80
2018-09-15T10:12:41.477Z,25.60
2018-09-15T10:15:15.957Z,27.30
2018-09-15T10:17:50.533Z,29.30
2018-09-15T10:20:39.090Z,30.10
2018-09-15T10:23:14.915Z,30.30
2018-09-15T10:26:02.605Z,29.00
2018-09-15T10:28:44.075Z,27.90
2018-09-15T10:34:10.649Z,26.70
2018-09-15T10:36:41.956Z,25.60
2018-09-15T10:39:12.744Z,26.10
2018-09-15T10:41:50.361Z,25.40
2018-09-15T10:44:42.005Z,24.30
2018-09-15T10:47:15.448Z,23.60
2018-09-15T10:49:46.281Z,23.80
2018-09-15T10:52:17.068Z,24.40
2018-09-15T10:54:55.672Z,23.30
2018-09-15T10:57:44.254Z,22.70
2018-09-15T11:00:14.055Z,24.70
2018-09-15T11:02:47.809Z,28.10
2018-09-15T11:05:19.769Z,27.70
2018-09-15T11:07:48.550Z,29.10
2018-09-15T11:10:25.485Z,26.40
2018-09-15T11:12:58.497Z,25.40
2018-09-15T11:15:30.605Z,24.80
2018-09-15T11:18:14.385Z,24.00
2018-09-15T11:20:46.209Z,23.40
2018-09-15T11:23:14.948Z,22.80
2018-09-15T11:25:55.312Z,22.50
2018-09-15T11:28:34.091Z,24.10
2018-09-15T11:31:11.141Z,24.30
2018-09-15T11:33:45.032Z,25.40
2018-09-15T11:36:15.769Z,28.00
2018-09-15T11:41:43.975Z,31.60
2018-09-15T11:44:17.305Z,33.60
2018-09-15T11:46:53.785Z,31.40
2018-09-15T11:49:22.617Z,29.10
2018-09-15T11:51:52.421Z,30.50
2018-09-15T11:54:23.161Z,31.80
2018-09-15T11:56:53.004Z,32.80
2018-09-15T11:59:34.928Z,31.10
2018-09-15T12:02:03.817Z,30.10
2018-09-15T12:04:32.545Z,30.70
2018-09-15T12:07:07.037Z,28.30
2018-09-15T12:09:43.057Z,25.50
2018-09-15T12:12:15.308Z,24.50
2018-09-15T12:15:03.483Z,23.40
2018-09-15T12:17:39.523Z,23.00
2018-09-15T12:20:08.300Z,26.10
2018-09-15T12:22:38.099Z,26.50
2018-09-15T12:25:15.121Z,24.10
2018-09-15T12:27:44.009Z,23.20
2018-09-15T12:30:22.732Z,22.90
2018-09-15T12:32:51.572Z,25.60
2018-09-15T12:35:43.440Z,26.10
2018-09-15T12:38:15.876Z,26.80
2018-09-15T12:40:51.321Z,29.50
2018-09-15T12:43:31.704Z,32.50
2018-09-15T12:46:15.409Z,32.60
2018-09-15T12:48:53.957Z,33.90
2018-09-15T12:51:22.733Z,34.30
2018-09-15T12:53:56.137Z,33.10
2018-09-15T12:56:25.913Z,31.30
2018-09-15T12:58:56.664Z,29.90
2018-09-15T13:04:33.829Z,29.00
2018-09-15T13:07:16.645Z,27.40
2018-09-15T13:09:51.657Z,28.20
2018-09-15T13:12:25.629Z,28.70
2018-09-15T13:14:58.404Z,29.60
2018-09-15T13:17:29.142Z,31.40
2018-09-15T13:20:00.993Z,33.10
2018-09-15T13:22:36.375Z,34.20
2018-09-15T13:25:16.277Z,30.70
2018-09-15T13:31:02.765Z,32.10
2018-09-15T13:33:32.525Z,32.00
2018-09-15T13:36:01.321Z,30.60
2018-09-15T13:38:44.501Z,29.90
2018-09-15T13:41:20.149Z,30.40
2018-09-15T13:43:53.776Z,29.10
2018-09-15T13:46:26.069Z,26.90
2018-09-15T13:51:48.800Z,29.20
2018-09-15T13:54:17.625Z,29.90
2018-09-15T13:57:07.432Z,30.10
2018-09-15T14:02:49.986Z,30.50
2018-09-15T14:05:18.790Z,30.00
2018-09-15T14:07:47.592Z,30.10
2018-09-15T14:10:19.016Z,30.60
2018-09-15T14:12:45.165Z,31.40
2018-09-15T14:15:17.893Z,32.30
2018-09-15T14:17:46.732Z,32.10
2018-09-15T14:20:16.541Z,32.40
2018-09-15T14:22:48.996Z,32.60
2018-09-15T14:25:17.809Z,32.40
2018-09-15T14:27:50.468Z,31.50
2018-09-15T14:30:20.296Z,31.00
2018-09-15T14:32:55.870Z,30.20
2018-09-15T14:38:25.700Z,31.80
2018-09-15T14:41:14.276Z,30.70
2018-09-15T14:43:43.108Z,29.50
2018-09-15T14:46:16.504Z,29.70
2018-09-15T14:48:49.388Z,29.50
2018-09-15T14:51:25.460Z,29.80
2018-09-15T14:53:59.251Z,28.70
2018-09-15T14:56:33.976Z,28.00
2018-09-15T14:59:04.708Z,28.80
2018-09-15T15:04:39.320Z,30.10
2018-09-15T15:07:10.116Z,30.70
2018-09-15T15:09:50.804Z,30.00
2018-09-15T15:12:19.548Z,27.80
2018-09-15T15:14:52.236Z,26.00
2018-09-15T15:17:27.686Z,26.90
2018-09-15T15:19:56.447Z,28.30
2018-09-15T15:22:27.196Z,29.10
2018-09-15T15:24:57.004Z,28.20
2018-09-15T15:27:45.608Z,27.70
2018-09-15T15:30:16.364Z,27.30
2018-09-15T15:33:02.891Z,26.90
2018-09-15T15:35:33.665Z,27.00
2018-09-15T15:38:08.935Z,25.10
2018-09-15T15:40:48.824Z,25.10
2018-09-15T15:43:19.607Z,25.60
2018-09-15T15:45:55.872Z,25.60
2018-09-15T15:51:31.926Z,26.30
2018-09-15T15:54:00.687Z,25.50
2018-09-15T15:56:41.716Z,25.20
2018-09-15T15:59:16.943Z,25.30
2018-09-15T16:01:47.821Z,25.20
2018-09-15T16:04:17.666Z,25.10
2018-09-15T16:06:52.401Z,24.50
2018-09-15T16:09:21.169Z,23.90
2018-09-15T16:14:50.828Z,23.60
2018-09-15T16:17:23.396Z,22.90
2018-09-15T16:20:03.884Z,22.60
2018-09-15T16:22:32.731Z,22.40
2018-09-15T16:27:59.432Z,22.20
2018-09-15T16:30:39.647Z,22.30
2018-09-15T16:33:23.110Z,22.00
2018-09-15T16:35:56.891Z,21.50
2018-09-15T16:38:27.712Z,21.40
2018-09-15T16:41:02.196Z,21.10
2018-09-15T16:43:43.560Z,21.20
2018-09-15T16:46:12.419Z,21.30
2018-09-15T16:48:41.212Z,21.10
2018-09-15T16:51:16.213Z,20.90
2018-09-15T16:53:56.519Z,20.70
2018-09-15T16:56:27.304Z,20.40
2018-09-15T16:58:57.100Z,19.80
2018-09-15T17:01:29.523Z,19.40
2018-09-15T17:03:59.303Z,19.00
2018-09-15T17:12:18.172Z,17.90
2018-09-15T17:14:58.360Z,17.60
2018-09-15T17:20:23.085Z,17.20
2018-09-15T17:22:57.524Z,17.00
2018-09-15T17:25:32.053Z,16.80
2018-09-15T17:28:01.493Z,16.70
2018-09-15T17:30:43.987Z,16.50
2018-09-15T17:33:13.752Z,16.40
2018-09-15T17:35:45.709Z,16.30
2018-09-15T17:38:15.491Z,16.10
2018-09-15T17:43:55.092Z,15.90
2018-09-15T17:46:23.824Z,15.80
2018-09-15T17:48:54.576Z,15.70
2018-09-15T17:51:30.892Z,15.60
2018-09-15T17:54:04.168Z,15.60
2018-09-15T17:56:38.864Z,15.50
2018-09-15T17:59:09.696Z,15.50
2018-09-15T18:01:55.440Z,15.50
2018-09-15T18:04:24.325Z,15.30
2018-09-15T18:06:53.192Z,15.00
2018-09-15T18:09:34.995Z,14.90
2018-09-15T18:12:16.905Z,14.70
2018-09-15T18:14:57.205Z,14.60
2018-09-15T18:17:26.036Z,14.40
2018-09-15T18:20:02.997Z,14.40
2018-09-15T18:22:38.821Z,14.30
2018-09-15T18:25:13.075Z,14.20
2018-09-15T18:27:53.568Z,14.20
2018-09-15T18:30:28.284Z,14.20
2018-09-15T18:32:57.175Z,14.10
2018-09-15T18:35:37.869Z,14.10
2018-09-15T18:38:16.743Z,14.20
2018-09-15T18:40:45.493Z,14.00
2018-09-15T18:43:19.103Z,13.90
2018-09-15T18:45:53.681Z,13.80
2018-09-15T18:48:22.536Z,13.60
2018-09-15T18:50:53.400Z,13.50
2018-09-15T18:53:22.232Z,13.40
2018-09-15T18:56:05.648Z,13.20
2018-09-15T18:58:36.436Z,12.80
2018-09-15T19:01:08.307Z,12.60
2018-09-15T19:03:45.668Z,12.50
2018-09-15T19:06:14.466Z,12.40
2018-09-15T19:08:51.252Z,12.30
2018-09-15T19:11:21.099Z,12.20
2018-09-15T19:13:50.832Z,12.20
2018-09-15T19:16:23.212Z,12.20
2018-09-15T19:19:04.171Z,12.20
2018-09-15T19:21:51.771Z,12.10
2018-09-15T19:24:28.119Z,12.00
2018-09-15T19:27:02.530Z,11.80
2018-09-15T19:29:41.859Z,11.80
2018-09-15T19:32:10.656Z,11.90
2018-09-15T19:34:39.415Z,11.80
2018-09-15T19:37:09.155Z,11.80
2018-09-15T19:39:42.516Z,11.80
2018-09-15T19:42:18.836Z,11.80
2018-09-15T19:44:53.675Z,11.70
2018-09-15T19:47:24.451Z,11.60
2018-09-15T19:50:06.651Z,11.50
2018-09-15T19:52:57.691Z,11.40
2018-09-15T19:55:33.768Z,11.20
2018-09-15T19:58:03.691Z,11.10
2018-09-15T20:00:40.096Z,11.00
2018-09-15T20:03:08.860Z,11.10
2018-09-15T20:05:39.675Z,11.00
2018-09-15T20:08:13.347Z,10.90
2018-09-15T20:10:54.136Z,10.80
2018-09-15T20:13:24.116Z,10.60
2018-09-15T20:16:02.124Z,10.40
2018-09-15T20:18:29.871Z,10.30
2018-09-15T20:20:58.604Z,10.30
2018-09-15T20:23:29.400Z,10.30
2018-09-15T20:26:03.328Z,10.30
2018-09-15T20:28:37.236Z,10.30
2018-09-15T20:34:02.467Z,10.30
2018-09-15T20:36:50.000Z,10.10
2018-09-15T20:39:26.207Z,10.00
2018-09-15T20:41:58.603Z,9.90
2018-09-15T20:44:39.356Z,9.80
2018-09-15T20:47:13.060Z,9.80
2018-09-15T20:49:52.500Z,9.70
2018-09-15T20:52:26.763Z,9.60
2018-09-15T20:54:55.513Z,9.50
2018-09-15T20:57:46.967Z,9.50
2018-09-15T21:00:15.824Z,9.40
2018-09-15T21:02:56.028Z,9.20
2018-09-15T21:05:25.795Z,9.20
2018-09-15T21:08:06.155Z,9.30
2018-09-15T21:10:59.475Z,9.20
2018-09-15T21:13:41.831Z,9.30
2018-09-15T21:16:16.395Z,9.20
2018-09-15T21:18:45.595Z,9.20
2018-09-15T21:21:25.795Z,9.20
2018-09-15T21:24:10.303Z,9.10
2018-09-15T21:26:48.555Z,9.10
2018-09-15T21:29:22.339Z,9.10
2018-09-15T21:31:53.195Z,9.10
2018-09-15T21:34:26.166Z,9.10
2018-09-15T21:36:56.027Z,9.10
2018-09-15T21:39:24.789Z,9.10
2018-09-15T21:41:59.348Z,9.00
2018-09-15T21:44:34.263Z,9.00
2018-09-15T21:47:03.108Z,8.90
2018-09-15T21:49:32.803Z,8.80
2018-09-15T21:52:03.563Z,8.80
2018-09-15T21:54:45.008Z,8.70
2018-09-15T21:57:14.777Z,8.80
2018-09-15T21:59:45.479Z,8.80
2018-09-15T22:02:21.751Z,8.70
2018-09-15T22:04:52.043Z,8.70
2018-09-15T22:07:22.891Z,8.60
2018-09-15T22:09:57.755Z,8.50
2018-09-15T22:12:26.527Z,8.40
2018-09-15T22:15:02.673Z,8.40
2018-09-15T22:17:34.879Z,8.30
2018-09-15T22:20:13.300Z,8.40
2018-09-15T22:22:46.935Z,8.40
2018-09-15T22:25:20.025Z,8.40
2018-09-15T22:27:52.851Z,8.40
2018-09-15T22:30:21.619Z,8.30
2018-09-15T22:32:56.107Z,8.30
2018-09-15T22:35:29.543Z,8.30
2018-09-15T22:37:58.351Z,8.30
2018-09-15T22:40:31.539Z,8.30
2018-09-15T22:43:10.290Z,8.30
2018-09-15T22:45:39.139Z,8.30
2018-09-15T22:48:10.030Z,8.20
2018-09-15T22:50:40.831Z,8.20
2018-09-15T22:53:12.755Z,8.10
2018-09-15T22:55:48.960Z,8.10
2018-09-15T22:58:17.735Z,8.10
2018-09-15T23:00:48.447Z,8.20
2018-09-15T23:03:27.964Z,8.20
2018-09-15T23:05:58.788Z,8.10
2018-09-15T23:08:28.539Z,8.00
2018-09-15T23:11:08.748Z,7.90
2018-09-15T23:13:38.548Z,7.90
2018-09-15T23:16:19.407Z,7.80
2018-09-15T23:18:48.176Z,7.70
2018-09-15T23:21:25.251Z,7.60
2018-09-15T23:23:55.053Z,7.70
2018-09-15T23:26:46.927Z,7.80
2018-09-15T23:29:17.715Z,7.80
2018-09-15T23:31:47.512Z,7.90
2018-09-15T23:34:17.407Z,8.00
2018-09-15T23:36:50.779Z,7.90
2018-09-15T23:39:19.503Z,7.80
2018-09-15T23:41:55.615Z,7.70
2018-09-15T23:44:24.379Z,7.60
2018-09-15T23:46:56.915Z,7.50
2018-09-15T23:49:27.679Z,7.50
2018-09-15T23:52:01.859Z,7.50
2018-09-15T23:54:32.915Z,7.60
2018-09-15T23:57:19.187Z,7.60
2018-09-15T23:59:48.287Z,7.60
